createdAt,value
2018-10-02T00:01:23.124Z,11.60
2018-10-02T00:03:50.322Z,10.07
2018-10-02T00:06:17.470Z,9.30
2018-10-02T00:08:44.628Z,9.90
2018-10-02T00:11:17.214Z,13.97
2018-10-02T00:13:49.895Z,10.23
2018-10-02T00:16:17.054Z,9.67
2018-10-02T00:18:44.242Z,13.90
2018-10-02T00:21:11.426Z,15.27
2018-10-02T00:23:38.586Z,10.60
2018-10-02T00:26:05.874Z,8.17
2018-10-02T00:28:33.059Z,9.37
2018-10-02T00:31:00.222Z,16.27
2018-10-02T00:33:27.425Z,11.40
2018-10-02T00:35:54.590Z,11.33
2018-10-02T00:38:21.774Z,10.70
2018-10-02T00:40:48.962Z,13.87
2018-10-02T00:43:16.122Z,13.67
2018-10-02T00:45:43.311Z,13.93
2018-10-02T00:48:10.470Z,17.03
2018-10-02T00:50:37.651Z,12.83
2018-10-02T00:53:04.811Z,12.20
2018-10-02T00:55:32.010Z,16.30
2018-10-02T00:57:59.207Z,17.67
2018-10-02T01:00:26.406Z,17.83
2018-10-02T01:02:53.595Z,13.70
2018-10-02T01:05:20.761Z,15.50
2018-10-02T01:07:47.983Z,10.90
2018-10-02T01:10:15.166Z,15.87
2018-10-02T01:12:42.315Z,13.87
2018-10-02T01:15:09.515Z,12.90
2018-10-02T01:17:36.675Z,14.93
2018-10-02T01:20:03.864Z,15.33
2018-10-02T01:22:31.158Z,11.00
2018-10-02T01:24:58.338Z,7.90
2018-10-02T01:27:25.502Z,14.63
2018-10-02T01:29:52.700Z,11.20
2018-10-02T01:32:19.854Z,9.57
2018-10-02T01:34:47.015Z,12.53
2018-10-02T01:37:14.222Z,10.07
2018-10-02T01:39:41.398Z,13.23
2018-10-02T01:42:08.578Z,11.23
2018-10-02T01:44:35.755Z,9.93
2018-10-02T01:47:02.946Z,13.40
2018-10-02T01:49:30.138Z,13.80
2018-10-02T01:51:57.318Z,13.13
2018-10-02T01:54:24.480Z,17.70
2018-10-02T01:56:51.714Z,10.90
2018-10-02T01:59:18.865Z,7.83
2018-10-02T02:01:46.121Z,14.70
2018-10-02T02:04:13.322Z,10.70
2018-10-02T02:06:40.506Z,14.23
2018-10-02T02:09:07.978Z,12.10
2018-10-02T02:11:35.335Z,9.37
2018-10-02T02:14:03.380Z,14.63
2018-10-02T02:16:30.542Z,11.57
2018-10-02T02:18:57.715Z,11.27
2018-10-02T02:21:24.901Z,11.30
2018-10-02T02:23:52.074Z,12.30
2018-10-02T02:26:19.252Z,14.53
2018-10-02T02:28:46.449Z,18.90
2018-10-02T02:31:13.647Z,10.23
2018-10-02T02:33:40.817Z,11.10
2018-10-02T02:36:08.243Z,14.47
2018-10-02T02:38:41.942Z,12.00
2018-10-02T02:41:09.129Z,9.53
2018-10-02T02:43:36.283Z,11.50
2018-10-02T02:46:03.482Z,11.80
2018-10-02T02:48:36.063Z,10.20
2018-10-02T02:51:08.634Z,10.03
2018-10-02T02:53:36.114Z,13.90
2018-10-02T02:56:03.284Z,8.07
2018-10-02T02:58:30.463Z,7.23
2018-10-02T03:00:57.621Z,10.60
2018-10-02T03:03:24.800Z,8.13
2018-10-02T03:05:51.988Z,10.93
2018-10-02T03:08:19.170Z,11.80
2018-10-02T03:10:46.338Z,14.40
2018-10-02T03:13:13.522Z,10.90
2018-10-02T03:15:40.687Z,12.43
2018-10-02T03:18:07.869Z,13.53
2018-10-02T03:20:35.066Z,9.10
2018-10-02T03:23:02.650Z,9.53
2018-10-02T03:25:29.826Z,7.77
2018-10-02T03:27:57.010Z,12.47
2018-10-02T03:30:24.205Z,10.00
2018-10-02T03:32:51.387Z,9.77
2018-10-02T03:35:18.580Z,9.00
2018-10-02T03:37:45.835Z,10.40
2018-10-02T03:40:13.015Z,9.40
2018-10-02T03:42:40.167Z,7.10
2018-10-02T03:45:07.348Z,9.63
2018-10-02T03:47:34.535Z,12.20
2018-10-02T03:50:02.359Z,12.03
2018-10-02T03:52:29.543Z,8.50
2018-10-02T03:54:56.698Z,7.50
2018-10-02T03:57:23.887Z,7.20
2018-10-02T03:59:51.730Z,7.67
2018-10-02T04:02:18.935Z,12.20
2018-10-02T04:04:46.109Z,5.70
2018-10-02T04:07:13.310Z,12.27
2018-10-02T04:09:40.498Z,7.30
2018-10-02T04:12:07.706Z,10.13
2018-10-02T04:14:34.886Z,6.90
2018-10-02T04:17:02.534Z,12.20
2018-10-02T04:19:29.702Z,11.17
2018-10-02T04:21:56.883Z,7.67
2018-10-02T04:24:24.069Z,7.00
2018-10-02T04:26:51.260Z,6.47
2018-10-02T04:29:18.418Z,8.03
2018-10-02T04:31:45.607Z,11.00
2018-10-02T04:34:12.825Z,7.90
2018-10-02T04:36:39.981Z,5.37
2018-10-02T04:39:07.622Z,7.97
2018-10-02T04:41:34.781Z,4.63
2018-10-02T04:44:02.032Z,6.07
2018-10-02T04:46:29.199Z,5.23
2018-10-02T04:48:56.372Z,8.90
2018-10-02T04:51:23.567Z,9.00
2018-10-02T04:53:50.723Z,5.37
2018-10-02T04:56:17.975Z,4.90
2018-10-02T04:58:45.093Z,5.87
2018-10-02T05:01:12.248Z,9.63
2018-10-02T05:03:39.496Z,10.50
2018-10-02T05:06:06.694Z,8.13
2018-10-02T05:08:33.957Z,5.27
2018-10-02T05:11:01.527Z,6.33
2018-10-02T05:13:28.711Z,4.80
2018-10-02T05:15:55.918Z,6.00
2018-10-02T05:18:23.112Z,3.83
2018-10-02T05:20:50.441Z,12.07
2018-10-02T05:23:17.620Z,5.13
2018-10-02T05:25:44.800Z,6.90
2018-10-02T05:28:12.192Z,6.73
2018-10-02T05:30:39.366Z,10.20
2018-10-02T05:33:06.551Z,6.20
2018-10-02T05:35:33.741Z,6.67
2018-10-02T05:38:01.516Z,7.10
2018-10-02T05:40:28.674Z,8.03
2018-10-02T05:42:55.867Z,6.93
2018-10-02T05:45:23.031Z,9.20
2018-10-02T05:47:50.267Z,8.87
2018-10-02T05:50:17.448Z,7.73
2018-10-02T05:52:44.607Z,8.17
2018-10-02T05:55:11.794Z,12.67
2018-10-02T05:57:39.199Z,6.20
2018-10-02T06:00:06.581Z,5.87
2018-10-02T06:02:33.778Z,10.27
2018-10-02T06:05:01.231Z,6.00
2018-10-02T06:07:28.427Z,8.03
2018-10-02T06:09:56.224Z,10.13
2018-10-02T06:12:23.350Z,6.50
2018-10-02T06:14:50.526Z,6.57
2018-10-02T06:17:17.940Z,9.87
2018-10-02T06:19:47.469Z,6.33
2018-10-02T06:22:15.306Z,7.42
2018-10-02T06:24:44.010Z,10.90
2018-10-02T06:27:13.142Z,8.27
2018-10-02T06:29:40.811Z,8.03
2018-10-02T06:32:07.994Z,9.70
2018-10-02T06:34:35.391Z,8.30
2018-10-02T06:37:03.961Z,10.73
2018-10-02T06:39:32.363Z,8.20
2018-10-02T06:42:00.343Z,9.27
2018-10-02T06:44:27.607Z,13.33
2018-10-02T06:46:54.762Z,13.40
2018-10-02T06:49:21.936Z,9.67
2018-10-02T06:51:49.297Z,7.60
2018-10-02T06:54:16.416Z,11.60
2018-10-02T06:56:43.654Z,7.53
2018-10-02T06:59:10.812Z,10.97
2018-10-02T07:01:37.995Z,9.30
2018-10-02T07:04:05.207Z,11.07
2018-10-02T07:06:32.377Z,7.53
2018-10-02T07:08:59.627Z,7.77
2018-10-02T07:11:26.766Z,6.80
2018-10-02T07:13:53.935Z,7.60
2018-10-02T07:16:21.271Z,14.73
2018-10-02T07:18:48.601Z,5.30
2018-10-02T07:21:15.843Z,16.30
2018-10-02T07:23:43.052Z,12.67
2018-10-02T07:26:10.462Z,9.00
2018-10-02T07:28:38.052Z,12.77
2018-10-02T07:31:05.537Z,17.23
2018-10-02T07:33:32.678Z,10.17
2018-10-02T07:35:59.863Z,7.30
2018-10-02T07:38:27.050Z,10.73
2018-10-02T07:40:54.236Z,9.40
2018-10-02T07:43:21.419Z,8.83
2018-10-02T07:45:48.594Z,7.37
2018-10-02T07:48:16.342Z,5.80
2018-10-02T07:50:43.630Z,7.10
2018-10-02T07:53:10.733Z,14.50
2018-10-02T07:55:38.007Z,9.40
2018-10-02T07:58:05.258Z,16.00
2018-10-02T08:00:32.456Z,7.17
2018-10-02T08:02:59.638Z,7.13
2018-10-02T08:05:26.825Z,11.90
2018-10-02T08:07:54.006Z,13.20
2018-10-02T08:10:21.219Z,12.20
2018-10-02T08:12:48.378Z,7.33
2018-10-02T08:15:15.697Z,8.20
2018-10-02T08:17:42.950Z,7.90
2018-10-02T08:20:10.097Z,11.30
2018-10-02T08:22:37.266Z,13.03
2018-10-02T08:25:04.497Z,7.97
2018-10-02T08:27:31.664Z,8.80
2018-10-02T08:29:58.905Z,8.70
2018-10-02T08:32:26.140Z,12.77
2018-10-02T08:34:53.291Z,6.33
2018-10-02T08:37:20.490Z,10.93
2018-10-02T08:39:47.710Z,5.43
2018-10-02T08:42:15.023Z,7.00
2018-10-02T08:44:42.206Z,7.10
2018-10-02T08:47:09.406Z,10.10
2018-10-02T08:49:36.568Z,14.30
2018-10-02T08:52:03.909Z,8.73
2018-10-02T08:54:30.959Z,8.47
2018-10-02T08:56:58.125Z,10.83
2018-10-02T08:59:25.283Z,7.53
2018-10-02T09:01:52.467Z,5.37
2018-10-02T09:04:19.652Z,9.60
2018-10-02T09:06:46.851Z,9.87
2018-10-02T09:09:14.047Z,10.50
2018-10-02T09:11:41.231Z,7.93
2018-10-02T09:14:08.448Z,7.73
2018-10-02T09:16:35.736Z,10.17
2018-10-02T09:19:02.900Z,8.50
2018-10-02T09:21:30.057Z,11.63
2018-10-02T09:23:57.264Z,11.60
2018-10-02T09:26:24.387Z,7.60
2018-10-02T09:28:51.579Z,13.63
2018-10-02T09:31:24.301Z,12.13
2018-10-02T09:33:57.120Z,13.03
2018-10-02T09:36:29.766Z,10.93
2018-10-02T09:39:02.442Z,7.63
2018-10-02T09:41:35.233Z,6.40
2018-10-02T09:44:03.598Z,8.93
2018-10-02T09:46:30.691Z,5.80
2018-10-02T09:48:57.890Z,6.60
2018-10-02T09:51:25.085Z,10.10
2018-10-02T09:53:52.271Z,11.70
2018-10-02T09:56:19.463Z,12.83
2018-10-02T09:58:46.658Z,10.33
2018-10-02T10:01:19.351Z,11.13
2018-10-02T10:03:46.541Z,12.30
2018-10-02T10:06:13.745Z,18.80
2018-10-02T10:08:40.927Z,9.40
2018-10-02T10:11:08.090Z,8.77
2018-10-02T10:13:35.653Z,11.20
2018-10-02T10:16:03.214Z,8.13
2018-10-02T10:18:30.377Z,8.30
2018-10-02T10:20:57.595Z,13.20
2018-10-02T10:23:24.825Z,9.20
2018-10-02T10:25:51.983Z,12.67
2018-10-02T10:28:19.194Z,6.73
2018-10-02T10:30:46.376Z,10.27
2018-10-02T10:33:13.791Z,12.20
2018-10-02T10:35:41.163Z,9.90
2018-10-02T10:38:08.505Z,8.73
2018-10-02T10:40:35.824Z,9.70
2018-10-02T10:43:03.054Z,7.70
2018-10-02T10:45:30.243Z,12.50
2018-10-02T10:47:57.406Z,12.60
2018-10-02T10:50:24.590Z,12.43
2018-10-02T10:52:51.769Z,8.83
2018-10-02T10:55:28.667Z,8.30
2018-10-02T10:57:55.859Z,5.30
2018-10-02T11:00:23.072Z,8.80
2018-10-02T11:02:50.333Z,9.80
2018-10-02T11:05:17.802Z,5.60
2018-10-02T11:07:45.019Z,4.90
2018-10-02T11:10:14.056Z,7.50
2018-10-02T11:12:41.283Z,5.77
2018-10-02T11:15:08.567Z,8.07
2018-10-02T11:17:35.739Z,4.77
2018-10-02T11:20:04.004Z,4.73
2018-10-02T11:22:31.185Z,4.30
2018-10-02T11:24:58.382Z,3.63
2018-10-02T11:27:25.608Z,3.93
2018-10-02T11:29:52.808Z,7.57
2018-10-02T11:32:20.051Z,4.23
2018-10-02T11:34:47.487Z,4.73
2018-10-02T11:37:14.704Z,5.80
2018-10-02T11:39:41.879Z,5.10
2018-10-02T11:42:09.047Z,5.57
2018-10-02T11:44:36.309Z,9.67
2018-10-02T11:47:03.426Z,3.50
2018-10-02T11:49:30.707Z,6.17
2018-10-02T11:51:57.875Z,4.83
2018-10-02T11:54:25.080Z,6.07
2018-10-02T11:56:52.256Z,10.07
2018-10-02T11:59:19.418Z,6.33
2018-10-02T12:01:46.601Z,4.60
2018-10-02T12:04:13.912Z,4.60
2018-10-02T12:06:41.123Z,6.33
2018-10-02T12:09:08.685Z,4.57
2018-10-02T12:11:35.825Z,5.00
2018-10-02T12:14:03.138Z,3.93
2018-10-02T12:16:30.261Z,2.90
2018-10-02T12:18:57.424Z,4.27
2018-10-02T12:21:24.610Z,3.10
2018-10-02T12:23:51.967Z,4.17
2018-10-02T12:26:19.219Z,3.63
2018-10-02T12:28:46.451Z,2.13
2018-10-02T12:31:13.624Z,5.33
2018-10-02T12:33:40.813Z,3.20
2018-10-02T12:36:08.012Z,3.10
2018-10-02T12:38:35.206Z,7.33
2018-10-02T12:41:03.098Z,4.20
2018-10-02T12:43:30.290Z,4.40
2018-10-02T12:45:57.468Z,3.10
2018-10-02T12:48:24.713Z,2.53
2018-10-02T12:50:51.862Z,3.63
2018-10-02T12:53:19.092Z,2.27
2018-10-02T12:55:46.235Z,2.83
2018-10-02T12:58:13.418Z,3.30
2018-10-02T13:00:40.608Z,5.40
2018-10-02T13:03:07.933Z,2.03
2018-10-02T13:05:35.080Z,2.53
2018-10-02T13:08:02.906Z,3.20
2018-10-02T13:10:30.111Z,3.17
2018-10-02T13:12:57.277Z,2.40
2018-10-02T13:15:24.494Z,2.67
2018-10-02T13:17:51.654Z,4.90
2018-10-02T13:20:18.844Z,2.20
2018-10-02T13:22:46.009Z,4.87
2018-10-02T13:25:13.235Z,2.50
2018-10-02T13:27:40.443Z,2.47
2018-10-02T13:30:07.742Z,6.00
2018-10-02T13:32:34.907Z,3.40
2018-10-02T13:35:02.215Z,2.40
2018-10-02T13:37:29.422Z,1.77
2018-10-02T13:39:56.667Z,2.30
2018-10-02T13:42:23.820Z,1.93
2018-10-02T13:44:51.050Z,3.20
2018-10-02T13:47:18.183Z,1.30
2018-10-02T13:49:45.372Z,2.70
2018-10-02T13:52:12.526Z,2.23
2018-10-02T13:54:39.726Z,2.50
2018-10-02T13:57:06.892Z,2.17
2018-10-02T13:59:34.351Z,2.87
2018-10-02T14:02:02.391Z,1.80
2018-10-02T14:04:29.579Z,3.67
2018-10-02T14:06:56.782Z,2.30
2018-10-02T14:09:23.970Z,1.60
2018-10-02T14:11:51.134Z,1.70
2018-10-02T14:14:18.323Z,3.07
2018-10-02T14:16:45.498Z,3.20
2018-10-02T14:19:12.717Z,2.40
2018-10-02T14:21:40.121Z,3.60
2018-10-02T14:24:07.267Z,3.10
2018-10-02T14:26:34.459Z,2.50
2018-10-02T14:29:01.888Z,2.30
2018-10-02T14:31:29.076Z,3.57
2018-10-02T14:33:56.371Z,2.90
2018-10-02T14:36:23.592Z,1.87
2018-10-02T14:38:50.703Z,5.73
2018-10-02T14:41:17.895Z,2.60
2018-10-02T14:43:45.046Z,1.67
2018-10-02T14:46:12.237Z,2.80
2018-10-02T14:48:39.522Z,4.43
2018-10-02T14:51:06.691Z,1.90
2018-10-02T14:53:33.847Z,2.07
2018-10-02T14:56:01.314Z,2.87
2018-10-02T14:58:28.498Z,2.20
2018-10-02T15:00:55.731Z,2.30
2018-10-02T15:03:22.938Z,3.17
2018-10-02T15:05:50.130Z,1.97
2018-10-02T15:08:17.327Z,2.63
2018-10-02T15:10:44.508Z,2.30
2018-10-02T15:13:11.691Z,2.60
2018-10-02T15:15:38.919Z,2.50
2018-10-02T15:18:06.161Z,5.87
2018-10-02T15:20:33.327Z,6.10
2018-10-02T15:23:00.507Z,2.93
2018-10-02T15:25:27.686Z,2.27
2018-10-02T15:27:54.892Z,2.27
2018-10-02T15:30:22.092Z,2.60
2018-10-02T15:32:49.327Z,2.60
2018-10-02T15:35:16.586Z,2.20
2018-10-02T15:37:43.814Z,3.10
2018-10-02T15:40:10.957Z,2.27
2018-10-02T15:42:38.122Z,1.80
2018-10-02T15:45:05.311Z,2.50
2018-10-02T15:47:32.536Z,3.23
2018-10-02T15:49:59.703Z,5.47
2018-10-02T15:52:26.882Z,2.10
2018-10-02T15:54:54.076Z,2.20
2018-10-02T15:57:21.331Z,3.27
2018-10-02T15:59:48.482Z,1.80
2018-10-02T16:02:15.678Z,1.70
2018-10-02T16:04:42.878Z,2.00
2018-10-02T16:07:10.031Z,4.93
2018-10-02T16:09:37.218Z,2.40
2018-10-02T16:12:04.427Z,2.07
2018-10-02T16:14:31.785Z,2.30
2018-10-02T16:16:58.950Z,2.27
2018-10-02T16:19:26.160Z,2.10
2018-10-02T16:21:53.396Z,3.27
2018-10-02T16:24:20.532Z,1.90
2018-10-02T16:26:47.714Z,2.10
2018-10-02T16:29:14.884Z,2.03
2018-10-02T16:31:42.089Z,1.80
2018-10-02T16:34:09.250Z,1.83
2018-10-02T16:36:36.442Z,2.17
2018-10-02T16:39:04.576Z,2.10
2018-10-02T16:41:31.774Z,1.90
2018-10-02T16:43:58.937Z,1.63
2018-10-02T16:46:26.124Z,2.27
2018-10-02T16:48:53.290Z,2.63
2018-10-02T16:51:20.476Z,2.10
2018-10-02T16:53:47.665Z,2.40
2018-10-02T16:56:14.857Z,2.53
2018-10-02T16:58:42.063Z,1.60
2018-10-02T17:01:09.229Z,3.90
2018-10-02T17:03:36.427Z,2.10
2018-10-02T17:06:03.583Z,2.67
2018-10-02T17:08:30.802Z,2.50
2018-10-02T17:10:58.015Z,1.90
2018-10-02T17:13:25.202Z,2.53
2018-10-02T17:15:52.455Z,2.53
2018-10-02T17:18:19.615Z,2.70
2018-10-02T17:20:46.776Z,2.80
2018-10-02T17:23:13.963Z,5.83
2018-10-02T17:25:41.148Z,2.53
2018-10-02T17:28:08.379Z,3.33
2018-10-02T17:30:35.602Z,2.90
2018-10-02T17:33:02.800Z,3.03
2018-10-02T17:35:29.969Z,3.43
2018-10-02T17:37:57.127Z,3.57
2018-10-02T17:40:24.342Z,3.37
2018-10-02T17:42:51.504Z,2.70
2018-10-02T17:45:18.778Z,4.37
2018-10-02T17:47:46.024Z,4.40
2018-10-02T17:50:13.220Z,5.03
2018-10-02T17:52:40.379Z,3.10
2018-10-02T17:55:07.580Z,5.20
2018-10-02T17:57:35.251Z,5.53
2018-10-02T18:00:03.160Z,4.93
2018-10-02T18:02:30.382Z,4.90
2018-10-02T18:04:57.546Z,8.93
2018-10-02T18:07:24.782Z,5.43
2018-10-02T18:09:51.947Z,5.10
2018-10-02T18:12:19.113Z,5.37
2018-10-02T18:14:46.299Z,5.00
2018-10-02T18:17:14.090Z,5.90
2018-10-02T18:19:41.776Z,5.60
2018-10-02T18:22:08.948Z,5.53
2018-10-02T18:24:36.143Z,5.40
2018-10-02T18:27:03.331Z,6.97
2018-10-02T18:29:30.543Z,7.30
2018-10-02T18:31:57.726Z,7.70
2018-10-02T18:34:24.880Z,7.50
2018-10-02T18:36:52.069Z,8.30
2018-10-02T18:39:19.247Z,7.30
2018-10-02T18:41:46.440Z,8.37
2018-10-02T18:44:13.637Z,6.77
2018-10-02T18:46:40.802Z,8.50
2018-10-02T18:49:08.105Z,9.07
2018-10-02T18:51:35.199Z,8.77
2018-10-02T18:54:03.070Z,9.13
2018-10-02T18:56:30.326Z,7.83
2018-10-02T18:58:57.465Z,10.63
2018-10-02T19:01:24.710Z,11.30
2018-10-02T19:03:51.908Z,10.37
2018-10-02T19:06:19.070Z,12.17
2018-10-02T19:08:51.857Z,10.83
2018-10-02T19:11:24.498Z,10.10
2018-10-02T19:13:51.691Z,10.13
2018-10-02T19:16:24.448Z,9.63
2018-10-02T19:18:51.685Z,9.33
2018-10-02T19:21:18.855Z,12.63
2018-10-02T19:23:46.075Z,11.70
2018-10-02T19:26:19.221Z,15.53
2018-10-02T19:28:46.394Z,11.80
2018-10-02T19:32:17.895Z,11.67
2018-10-02T19:34:45.382Z,13.53
2018-10-02T19:37:17.910Z,12.97
2018-10-02T19:39:45.115Z,12.13
2018-10-02T19:42:12.637Z,12.10
2018-10-02T19:44:39.869Z,12.17
2018-10-02T19:47:07.064Z,15.10
2018-10-02T19:49:35.238Z,11.90
2018-10-02T19:52:08.332Z,12.13
2018-10-02T19:54:35.496Z,12.67
2018-10-02T19:57:02.796Z,13.73
2018-10-02T19:59:30.003Z,13.57
2018-10-02T20:01:57.173Z,13.20
2018-10-02T20:04:24.464Z,12.60
2018-10-02T20:06:51.570Z,14.07
2018-10-02T20:09:18.761Z,13.60
2018-10-02T20:11:45.938Z,16.70
2018-10-02T20:14:13.166Z,14.23
2018-10-02T20:16:40.547Z,14.43
2018-10-02T20:19:08.019Z,14.97
2018-10-02T20:21:35.614Z,13.23
2018-10-02T20:24:02.788Z,14.40
2018-10-02T20:26:30.305Z,15.27
2018-10-02T20:28:57.502Z,15.27
2018-10-02T20:31:25.139Z,17.70
2018-10-02T20:33:52.324Z,22.60
2018-10-02T20:36:19.482Z,14.87
2018-10-02T20:38:46.674Z,16.00
2018-10-02T20:41:13.894Z,17.27
2018-10-02T20:43:41.142Z,17.93
2018-10-02T20:46:08.335Z,18.33
2018-10-02T20:48:35.511Z,21.80
2018-10-02T20:51:03.109Z,19.40
2018-10-02T20:53:30.323Z,19.30
2018-10-02T20:55:57.497Z,18.37
2018-10-02T20:58:24.665Z,20.57
2018-10-02T21:00:51.881Z,20.60
2018-10-02T21:03:19.039Z,22.43
2018-10-02T21:05:46.342Z,19.43
2018-10-02T21:08:13.528Z,20.43
2018-10-02T21:10:40.759Z,18.70
2018-10-02T21:13:07.955Z,21.20
2018-10-02T21:15:35.352Z,20.77
2018-10-02T21:18:03.009Z,21.20
2018-10-02T21:20:30.231Z,20.40
2018-10-02T21:22:58.391Z,19.27
2018-10-02T21:25:25.600Z,19.63
2018-10-02T21:27:52.799Z,18.67
2018-10-02T21:30:19.984Z,21.93
2018-10-02T21:32:47.192Z,19.33
2018-10-02T21:35:14.392Z,25.27
2018-10-02T21:37:41.670Z,20.20
2018-10-02T21:40:08.967Z,17.93
2018-10-02T21:42:36.071Z,20.73
2018-10-02T21:45:03.262Z,19.77
2018-10-02T21:47:30.457Z,18.03
2018-10-02T21:49:57.724Z,18.33
2018-10-02T21:52:24.896Z,18.10
2018-10-02T21:57:25.790Z,21.30
2018-10-02T21:59:53.006Z,19.60
2018-10-02T22:02:20.174Z,19.87
2018-10-02T22:04:47.378Z,16.53
2018-10-02T22:07:14.569Z,17.27
2018-10-02T22:09:41.763Z,20.27
2018-10-02T22:12:08.940Z,17.67
2018-10-02T22:14:36.143Z,17.60
2018-10-02T22:17:03.355Z,18.87
2018-10-02T22:19:30.524Z,19.90
2018-10-02T22:21:57.739Z,19.50
2018-10-02T22:24:24.950Z,20.67
2018-10-02T22:26:52.258Z,20.97
2018-10-02T22:29:19.435Z,17.30
2018-10-02T22:31:46.630Z,18.03
2018-10-02T22:34:13.919Z,18.37
2018-10-02T22:36:41.087Z,27.63
2018-10-02T22:39:08.602Z,18.07
2018-10-02T22:41:35.818Z,17.73
2018-10-02T22:44:03.011Z,19.27
2018-10-02T22:46:30.370Z,24.30
2018-10-02T22:48:57.671Z,18.67
2018-10-02T22:51:24.840Z,18.77
2018-10-02T22:53:52.062Z,23.37
2018-10-02T22:56:19.783Z,20.73
2018-10-02T22:58:46.982Z,25.07
2018-10-02T23:01:14.153Z,21.37
2018-10-02T23:03:41.424Z,19.50
2018-10-02T23:06:08.623Z,19.83
2018-10-02T23:08:35.801Z,21.97
2018-10-02T23:11:02.998Z,23.20
2018-10-02T23:13:30.188Z,18.33
2018-10-02T23:15:57.383Z,20.00
2018-10-02T23:18:24.578Z,18.60
2018-10-02T23:20:51.783Z,21.27
2018-10-02T23:23:18.982Z,18.07
2018-10-02T23:25:46.230Z,18.30
2018-10-02T23:28:13.406Z,18.83
2018-10-02T23:30:40.599Z,19.00
2018-10-02T23:33:07.796Z,19.20
2018-10-02T23:35:34.997Z,22.37
2018-10-02T23:38:02.582Z,18.97
2018-10-02T23:40:29.778Z,19.67
2018-10-02T23:42:56.982Z,19.43
2018-10-02T23:45:24.175Z,19.93
2018-10-02T23:47:51.367Z,21.70
2018-10-02T23:50:18.539Z,20.03
2018-10-02T23:52:45.749Z,20.27
2018-10-02T23:55:12.923Z,19.37
2018-10-02T23:57:40.119Z,16.87
